createdAt,value
2022-11-14T00:00:38.407Z,8.14
2022-11-14T00:03:06.657Z,8.08
2022-11-14T00:05:33.747Z,8.06
2022-11-14T00:08:00.106Z,8.04
2022-11-14T00:10:26.522Z,8.07
2022-11-14T00:12:52.918Z,8.04
2022-11-14T00:15:19.499Z,7.99
2022-11-14T00:17:45.886Z,7.98
2022-11-14T00:20:13.231Z,7.95
2022-11-14T00:22:39.636Z,7.90
2022-11-14T00:25:06.213Z,7.87
2022-11-14T00:27:32.570Z,7.80
2022-11-14T00:30:01.771Z,7.77
2022-11-14T00:32:28.167Z,7.74
2022-11-14T00:34:54.485Z,7.72
2022-11-14T00:37:20.822Z,7.68
2022-11-14T00:39:47.186Z,7.67
2022-11-14T00:42:13.557Z,7.67
2022-11-14T00:44:40.787Z,7.69
2022-11-14T00:47:07.200Z,7.60
2022-11-14T00:49:35.470Z,7.54
2022-11-14T00:52:01.809Z,7.48
2022-11-14T00:54:28.375Z,7.41
2022-11-14T00:56:54.749Z,7.38
2022-11-14T00:59:21.130Z,7.35
2022-11-14T01:01:47.469Z,7.36
2022-11-14T01:04:13.804Z,7.36
2022-11-14T01:06:40.140Z,7.36
2022-11-14T01:09:08.664Z,7.32
2022-11-14T01:11:35.105Z,7.32
2022-11-14T01:14:01.432Z,7.28
2022-11-14T01:16:28.427Z,7.26
2022-11-14T01:18:58.902Z,7.25
2022-11-14T01:21:25.479Z,7.22
2022-11-14T01:23:53.655Z,7.20
2022-11-14T01:26:20.031Z,7.16
2022-11-14T01:28:46.384Z,7.12
2022-11-14T01:31:16.238Z,7.07
2022-11-14T01:33:43.405Z,6.99
2022-11-14T01:36:10.589Z,6.96
2022-11-14T01:38:37.679Z,6.92
2022-11-14T01:41:05.118Z,6.88
2022-11-14T01:43:37.450Z,6.86
2022-11-14T01:46:03.862Z,6.85
2022-11-14T01:48:37.398Z,6.80
2022-11-14T01:51:34.027Z,6.77
2022-11-14T01:54:05.837Z,6.70
2022-11-14T01:56:55.077Z,6.74
2022-11-14T01:59:26.877Z,6.71
2022-11-14T02:01:56.202Z,6.66
2022-11-14T02:04:30.125Z,6.60
2022-11-14T02:07:01.006Z,6.63
2022-11-14T02:09:31.518Z,6.62
2022-11-14T02:11:59.698Z,6.61
2022-11-14T02:14:27.599Z,6.52
2022-11-14T02:17:22.285Z,6.56
2022-11-14T02:19:45.555Z,6.58
2022-11-14T02:22:11.898Z,6.59
2022-11-14T02:24:38.249Z,6.57
2022-11-14T02:27:06.551Z,6.56
2022-11-14T02:29:34.451Z,6.51
2022-11-14T02:32:06.868Z,6.51
2022-11-14T02:34:37.111Z,6.47
2022-11-14T02:37:03.716Z,6.47
2022-11-14T02:39:30.065Z,6.46
2022-11-14T02:41:56.386Z,6.43
2022-11-14T02:44:22.884Z,6.43
2022-11-14T02:46:50.111Z,6.45
2022-11-14T02:49:16.427Z,6.38
2022-11-14T02:51:42.785Z,6.38
2022-11-14T02:54:09.179Z,6.37
2022-11-14T02:56:35.626Z,6.34
2022-11-14T02:59:04.987Z,6.35
2022-11-14T03:01:31.415Z,6.32
2022-11-14T03:03:57.816Z,6.32
2022-11-14T03:06:24.187Z,6.28
2022-11-14T03:08:50.521Z,6.22
2022-11-14T03:11:16.962Z,6.21
2022-11-14T03:13:43.309Z,6.17
2022-11-14T03:16:11.745Z,6.11
2022-11-14T03:18:38.613Z,6.02
2022-11-14T03:21:25.225Z,5.94
2022-11-14T03:23:51.593Z,5.89
2022-11-14T03:26:17.952Z,5.88
2022-11-14T03:28:44.314Z,5.82
2022-11-14T03:31:12.215Z,5.77
2022-11-14T03:33:38.651Z,5.76
2022-11-14T03:36:06.093Z,5.72
2022-11-14T03:38:32.910Z,5.58
2022-11-14T03:40:59.910Z,5.66
2022-11-14T03:43:29.984Z,5.66
2022-11-14T03:45:58.749Z,5.65
2022-11-14T03:48:25.131Z,5.67
2022-11-14T03:50:54.675Z,5.68
2022-11-14T03:53:21.219Z,5.66
2022-11-14T03:55:47.552Z,5.60
2022-11-14T03:58:13.888Z,5.54
2022-11-14T04:00:40.444Z,5.51
2022-11-14T04:03:06.834Z,5.51
2022-11-14T04:05:33.484Z,5.46
2022-11-14T04:07:59.848Z,5.41
2022-11-14T04:10:26.461Z,5.43
2022-11-14T04:12:54.118Z,5.40
2022-11-14T04:15:24.867Z,5.31
2022-11-14T04:17:51.234Z,5.20
2022-11-14T04:20:17.709Z,5.20
2022-11-14T04:22:44.152Z,5.19
2022-11-14T04:25:11.821Z,5.22
2022-11-14T04:27:38.244Z,5.26
2022-11-14T04:30:05.960Z,5.33
2022-11-14T04:32:32.620Z,5.36
2022-11-14T04:34:59.287Z,5.37
2022-11-14T04:37:27.763Z,5.34
2022-11-14T04:39:58.514Z,5.38
2022-11-14T04:42:25.892Z,5.42
2022-11-14T04:44:52.259Z,5.45
2022-11-14T04:47:18.746Z,5.48
2022-11-14T04:49:45.128Z,5.48
2022-11-14T04:52:11.477Z,5.47
2022-11-14T04:54:37.928Z,5.48
2022-11-14T04:57:04.325Z,5.48
2022-11-14T04:59:30.674Z,5.49
2022-11-14T05:01:57.105Z,5.45
2022-11-14T05:04:23.540Z,5.46
2022-11-14T05:06:50.123Z,5.43
2022-11-14T05:09:16.473Z,5.42
2022-11-14T05:11:42.948Z,5.39
2022-11-14T05:14:09.275Z,5.35
2022-11-14T05:16:35.656Z,5.32
2022-11-14T05:19:02.039Z,5.28
2022-11-14T05:21:28.488Z,5.26
2022-11-14T05:23:57.277Z,5.24
2022-11-14T05:26:23.781Z,5.24
2022-11-14T05:28:50.149Z,5.25
2022-11-14T05:31:19.502Z,5.25
2022-11-14T05:33:46.948Z,5.21
2022-11-14T05:36:15.927Z,5.21
2022-11-14T05:38:42.895Z,5.20
2022-11-14T05:41:18.251Z,5.17
2022-11-14T05:43:44.746Z,5.13
2022-11-14T05:46:13.019Z,5.12
2022-11-14T05:48:40.210Z,5.10
2022-11-14T05:51:08.094Z,5.05
2022-11-14T05:53:35.239Z,5.01
2022-11-14T05:56:06.458Z,5.00
2022-11-14T05:58:34.217Z,5.03
2022-11-14T06:01:10.297Z,5.01
2022-11-14T06:03:39.921Z,4.94
2022-11-14T06:06:08.148Z,4.93
2022-11-14T06:08:35.747Z,4.91
2022-11-14T06:11:22.426Z,4.86
2022-11-14T06:13:48.925Z,4.79
2022-11-14T06:16:18.018Z,4.78
2022-11-14T06:18:44.851Z,4.77
2022-11-14T06:21:14.541Z,4.79
2022-11-14T06:23:41.372Z,4.79
2022-11-14T06:26:17.537Z,4.82
2022-11-14T06:28:43.914Z,4.83
2022-11-14T06:31:10.482Z,4.80
2022-11-14T06:33:37.513Z,4.82
2022-11-14T06:36:06.620Z,4.79
2022-11-14T06:38:38.760Z,4.87
2022-11-14T06:41:21.947Z,4.87
2022-11-14T06:43:50.258Z,4.82
2022-11-14T06:46:19.772Z,4.84
2022-11-14T06:48:46.950Z,4.87
2022-11-14T06:51:14.861Z,4.88
2022-11-14T06:53:42.152Z,4.88
2022-11-14T06:56:11.562Z,4.87
2022-11-14T06:58:40.190Z,4.88
2022-11-14T07:01:12.038Z,4.90
2022-11-14T07:03:38.483Z,4.92
2022-11-14T07:06:06.201Z,4.88
2022-11-14T07:08:33.237Z,4.89
2022-11-14T07:11:25.658Z,4.84
2022-11-14T07:13:54.598Z,4.91
2022-11-14T07:16:29.529Z,4.91
2022-11-14T07:18:57.651Z,4.89
2022-11-14T07:21:24.986Z,4.88
2022-11-14T07:23:51.686Z,4.89
2022-11-14T07:26:18.126Z,4.79
2022-11-14T07:28:49.452Z,4.75
2022-11-14T07:31:19.902Z,4.74
2022-11-14T07:33:47.289Z,4.79
2022-11-14T07:36:15.035Z,4.83
2022-11-14T07:38:43.693Z,4.87
2022-11-14T07:41:13.255Z,4.95
2022-11-14T07:43:41.578Z,5.03
2022-11-14T07:46:13.635Z,5.04
2022-11-14T07:48:40.268Z,5.07
2022-11-14T07:51:09.970Z,5.17
2022-11-14T07:53:37.799Z,5.29
2022-11-14T07:56:11.418Z,5.33
2022-11-14T07:58:41.541Z,5.33
2022-11-14T08:01:11.073Z,5.33
2022-11-14T08:03:42.233Z,5.37
2022-11-14T08:06:12.698Z,5.43
2022-11-14T08:08:39.163Z,5.44
2022-11-14T08:11:05.685Z,5.51
2022-11-14T08:13:33.611Z,5.59
2022-11-14T08:16:12.396Z,5.65
2022-11-14T08:18:40.223Z,5.71
2022-11-14T08:21:06.912Z,5.72
2022-11-14T08:23:34.423Z,5.75
2022-11-14T08:26:00.844Z,5.77
2022-11-14T08:28:27.788Z,5.83
2022-11-14T08:30:59.553Z,5.87
2022-11-14T08:33:25.892Z,5.86
2022-11-14T08:35:52.235Z,5.87
2022-11-14T08:38:18.911Z,5.90
2022-11-14T08:40:47.773Z,5.87
2022-11-14T08:43:14.186Z,5.92
2022-11-14T08:45:40.538Z,5.97
2022-11-14T08:48:06.909Z,6.04
2022-11-14T08:50:34.321Z,6.15
2022-11-14T08:53:00.695Z,6.21
2022-11-14T08:55:27.154Z,6.29
2022-11-14T08:57:53.810Z,6.36
2022-11-14T09:00:20.638Z,6.47
2022-11-14T09:02:47.130Z,6.55
2022-11-14T09:05:13.588Z,6.76
2022-11-14T09:07:39.996Z,7.10
2022-11-14T09:10:07.054Z,7.56
2022-11-14T09:12:33.575Z,8.10
2022-11-14T09:15:00.138Z,8.63
2022-11-14T09:17:26.569Z,9.22
2022-11-14T09:19:53.015Z,9.72
2022-11-14T09:22:19.444Z,10.29
2022-11-14T09:24:47.669Z,10.71
2022-11-14T09:27:14.250Z,11.04
2022-11-14T09:29:42.010Z,11.24
2022-11-14T09:32:09.733Z,11.45
2022-11-14T09:34:39.116Z,11.66
2022-11-14T09:37:05.416Z,11.77
2022-11-14T09:39:31.811Z,11.82
2022-11-14T09:42:41.848Z,12.00
2022-11-14T09:45:14.718Z,12.14
2022-11-14T09:47:56.032Z,12.25
2022-11-14T09:50:28.013Z,12.60
2022-11-14T09:52:56.415Z,13.04
2022-11-14T09:55:32.214Z,13.47
2022-11-14T09:58:03.404Z,14.03
2022-11-14T10:00:45.083Z,14.49
2022-11-14T10:03:28.757Z,15.05
2022-11-14T10:06:22.627Z,15.48
2022-11-14T10:09:30.400Z,15.89
2022-11-14T10:12:17.492Z,16.30
2022-11-14T10:15:06.194Z,16.66
2022-11-14T10:17:54.230Z,16.96
2022-11-14T10:20:29.541Z,17.27
2022-11-14T10:23:12.371Z,17.57
2022-11-14T10:26:12.551Z,17.83
2022-11-14T10:29:17.686Z,18.05
2022-11-14T10:32:12.467Z,18.23
2022-11-14T10:34:50.035Z,18.52
2022-11-14T10:37:24.216Z,18.81
2022-11-14T10:39:57.223Z,19.12
2022-11-14T10:42:34.571Z,19.29
2022-11-14T10:45:17.787Z,19.55
2022-11-14T10:47:51.546Z,19.60
2022-11-14T10:50:31.808Z,19.58
2022-11-14T10:53:04.855Z,19.54
2022-11-14T10:55:57.834Z,19.50
2022-11-14T10:58:17.686Z,19.61
2022-11-14T11:00:44.265Z,19.56
2022-11-14T11:03:10.761Z,19.63
2022-11-14T11:05:50.016Z,19.51
2022-11-14T11:08:46.614Z,19.71
2022-11-14T11:11:32.010Z,19.86
2022-11-14T11:14:00.706Z,19.78
2022-11-14T11:16:29.597Z,19.68
2022-11-14T11:19:26.583Z,19.72
2022-11-14T11:21:53.321Z,19.91
2022-11-14T11:24:32.045Z,20.15
2022-11-14T11:27:20.399Z,20.46
2022-11-14T11:29:46.935Z,20.58
2022-11-14T11:32:25.854Z,20.92
2022-11-14T11:34:52.595Z,21.08
2022-11-14T11:37:26.354Z,21.14
2022-11-14T11:39:56.341Z,21.19
2022-11-14T11:46:02.988Z,21.46
2022-11-14T11:48:37.855Z,21.37
2022-11-14T11:51:06.331Z,21.32
2022-11-14T11:53:39.270Z,21.48
2022-11-14T11:56:15.676Z,21.64
2022-11-14T11:58:49.612Z,21.41
2022-11-14T12:01:16.908Z,21.10
2022-11-14T12:03:49.112Z,21.11
2022-11-14T12:06:24.545Z,21.05
2022-11-14T12:09:16.012Z,20.93
2022-11-14T12:11:56.316Z,20.78
2022-11-14T12:14:44.701Z,20.84
2022-11-14T12:17:40.475Z,20.77
2022-11-14T12:20:37.297Z,20.90
2022-11-14T12:23:15.005Z,20.94
2022-11-14T12:25:48.326Z,20.89
2022-11-14T12:28:59.272Z,20.96
2022-11-14T12:31:35.272Z,20.80
2022-11-14T12:34:28.672Z,20.53
2022-11-14T12:36:55.604Z,20.25
2022-11-14T12:39:25.661Z,20.19
2022-11-14T12:42:02.486Z,20.18
2022-11-14T12:44:28.854Z,20.12
2022-11-14T12:47:13.333Z,20.03
2022-11-14T12:49:48.950Z,19.73
2022-11-14T12:52:40.041Z,19.38
2022-11-14T12:55:18.546Z,18.98
2022-11-14T12:58:07.597Z,18.59
2022-11-14T13:01:07.029Z,18.22
2022-11-14T13:03:41.260Z,18.04
2022-11-14T13:06:11.745Z,17.77
2022-11-14T13:09:02.658Z,17.62
2022-11-14T13:12:17.167Z,17.49
2022-11-14T13:15:48.613Z,16.95
2022-11-14T13:18:39.527Z,16.50
2022-11-14T13:21:46.178Z,16.16
2022-11-14T13:24:21.575Z,15.88
2022-11-14T13:26:52.765Z,15.52
2022-11-14T13:29:39.399Z,15.07
2022-11-14T13:32:10.867Z,14.73
2022-11-14T13:34:46.101Z,14.47
2022-11-14T13:37:45.383Z,14.29
2022-11-14T13:40:16.641Z,14.06
2022-11-14T13:42:55.907Z,13.82
2022-11-14T13:45:56.512Z,13.57
2022-11-14T13:48:47.480Z,13.39
2022-11-14T13:51:41.679Z,13.30
2022-11-14T13:54:14.745Z,13.29
2022-11-14T13:57:05.402Z,13.20
2022-11-14T14:00:16.782Z,13.12
2022-11-14T14:03:00.208Z,12.98
2022-11-14T14:05:55.239Z,13.02
2022-11-14T14:08:46.154Z,13.05
2022-11-14T14:11:43.256Z,12.96
2022-11-14T14:14:18.804Z,12.75
2022-11-14T14:16:56.578Z,12.80
2022-11-14T14:19:39.504Z,12.80
2022-11-14T14:22:33.468Z,12.73
2022-11-14T14:25:28.348Z,12.63
2022-11-14T14:28:09.460Z,12.46
2022-11-14T14:30:35.891Z,12.37
2022-11-14T14:33:08.180Z,12.34
2022-11-14T14:35:40.391Z,12.31
2022-11-14T14:38:22.691Z,12.21
2022-11-14T14:40:49.092Z,12.14
2022-11-14T14:43:31.716Z,12.04
2022-11-14T14:45:58.499Z,11.89
2022-11-14T14:48:31.749Z,11.84
2022-11-14T14:51:00.000Z,11.79
2022-11-14T14:53:33.623Z,11.60
2022-11-14T14:56:02.118Z,11.49
2022-11-14T14:58:32.971Z,11.45
2022-11-14T15:01:06.198Z,11.43
2022-11-14T15:03:37.743Z,11.34
2022-11-14T15:06:31.825Z,11.34
2022-11-14T15:09:05.862Z,11.37
2022-11-14T15:11:34.793Z,11.35
2022-11-14T15:14:02.724Z,11.30
2022-11-14T15:16:30.149Z,11.17
2022-11-14T15:18:58.108Z,11.15
2022-11-14T15:21:29.373Z,11.10
2022-11-14T15:24:13.030Z,11.02
2022-11-14T15:26:40.078Z,11.01
2022-11-14T15:29:15.251Z,11.03
2022-11-14T15:31:50.253Z,11.06
2022-11-14T15:34:31.821Z,11.11
2022-11-14T15:37:10.154Z,11.13
2022-11-14T15:39:37.969Z,11.04
2022-11-14T15:42:14.370Z,11.10
2022-11-14T15:44:42.907Z,11.04
2022-11-14T15:47:13.139Z,11.10
2022-11-14T15:50:02.947Z,11.05
2022-11-14T15:52:38.886Z,10.99
2022-11-14T15:55:13.795Z,10.91
2022-11-14T15:57:40.118Z,10.83
2022-11-14T16:00:07.150Z,10.83
2022-11-14T16:02:34.561Z,10.83
2022-11-14T16:05:04.051Z,10.78
2022-11-14T16:07:30.862Z,10.70
2022-11-14T16:09:57.296Z,10.64
2022-11-14T16:12:23.972Z,10.56
2022-11-14T16:14:50.574Z,10.58
2022-11-14T16:17:18.421Z,10.52
2022-11-14T16:19:45.090Z,10.48
2022-11-14T16:22:15.752Z,10.53
2022-11-14T16:24:45.011Z,10.53
2022-11-14T16:27:11.410Z,10.53
2022-11-14T16:29:37.801Z,10.54
2022-11-14T16:32:10.521Z,10.51
2022-11-14T16:34:36.932Z,10.44
2022-11-14T16:37:03.495Z,10.42
2022-11-14T16:39:29.935Z,10.39
2022-11-14T16:42:01.544Z,10.36
2022-11-14T16:44:33.417Z,10.35
2022-11-14T16:47:03.595Z,10.31
2022-11-14T16:49:29.960Z,10.27
2022-11-14T16:51:58.323Z,10.25
2022-11-14T16:54:24.756Z,10.18
2022-11-14T16:56:51.108Z,10.16
2022-11-14T16:59:17.530Z,10.14
2022-11-14T17:01:44.244Z,10.11
2022-11-14T17:04:10.889Z,10.08
2022-11-14T17:06:37.276Z,10.04
2022-11-14T17:09:06.238Z,10.03
2022-11-14T17:11:32.705Z,10.00
2022-11-14T17:14:01.370Z,9.96
2022-11-14T17:16:27.809Z,9.90
2022-11-14T17:18:55.285Z,9.80
2022-11-14T17:21:25.255Z,9.90
2022-11-14T17:23:55.796Z,9.87
2022-11-14T17:26:22.748Z,9.84
2022-11-14T17:28:49.263Z,9.81
2022-11-14T17:31:16.967Z,9.76
2022-11-14T17:33:43.349Z,9.77
2022-11-14T17:36:11.081Z,9.72
2022-11-14T17:38:40.784Z,9.66
2022-11-14T17:41:07.172Z,9.65
2022-11-14T17:43:39.143Z,9.63
2022-11-14T17:46:11.210Z,9.63
2022-11-14T17:48:42.242Z,9.60
2022-11-14T17:51:12.558Z,9.56
2022-11-14T17:53:39.919Z,9.50
2022-11-14T17:56:09.873Z,9.41
2022-11-14T17:58:36.331Z,9.40
2022-11-14T18:01:09.709Z,9.34
2022-11-14T18:03:36.175Z,9.30
2022-11-14T18:06:07.507Z,9.27
2022-11-14T18:08:35.113Z,9.25
2022-11-14T18:11:02.274Z,9.27
2022-11-14T18:13:28.680Z,9.25
2022-11-14T18:15:55.177Z,9.19
2022-11-14T18:18:21.612Z,9.19
2022-11-14T18:20:47.984Z,9.16
2022-11-14T18:23:14.330Z,9.08
2022-11-14T18:25:40.656Z,9.02
2022-11-14T18:28:12.764Z,8.94
2022-11-14T18:30:41.726Z,8.95
2022-11-14T18:33:08.504Z,8.88
2022-11-14T18:35:34.902Z,8.85
2022-11-14T18:38:04.176Z,8.85
2022-11-14T18:40:30.542Z,8.80
2022-11-14T18:42:56.937Z,8.78
2022-11-14T18:45:26.026Z,8.82
2022-11-14T18:47:52.357Z,8.84
2022-11-14T18:50:18.734Z,8.84
2022-11-14T18:52:45.326Z,8.80
2022-11-14T18:55:11.671Z,8.79
2022-11-14T18:57:39.628Z,8.73
2022-11-14T19:00:08.115Z,8.71
2022-11-14T19:02:34.485Z,8.73
2022-11-14T19:05:01.019Z,8.73
2022-11-14T19:07:29.407Z,8.70
2022-11-14T19:09:55.942Z,8.65
2022-11-14T19:12:23.425Z,8.65
2022-11-14T19:14:53.754Z,8.64
2022-11-14T19:17:21.021Z,8.58
2022-11-14T19:19:49.532Z,8.58
2022-11-14T19:22:17.047Z,8.50
2022-11-14T19:24:44.992Z,8.40
2022-11-14T19:27:11.975Z,8.41
2022-11-14T19:29:39.401Z,8.41
2022-11-14T19:32:06.342Z,8.35
2022-11-14T19:34:33.098Z,8.37
2022-11-14T19:37:02.683Z,8.38
2022-11-14T19:39:29.339Z,8.37
2022-11-14T19:41:55.905Z,8.33
2022-11-14T19:44:22.224Z,8.30
2022-11-14T19:46:48.608Z,8.30
2022-11-14T19:49:15.411Z,8.29
2022-11-14T19:51:41.844Z,8.31
2022-11-14T19:54:10.170Z,8.28
2022-11-14T19:56:36.796Z,8.26
2022-11-14T19:59:09.677Z,8.28
2022-11-14T20:01:41.526Z,8.23
2022-11-14T20:04:11.800Z,8.28
2022-11-14T20:06:39.032Z,8.31
2022-11-14T20:09:09.766Z,8.28
2022-11-14T20:11:37.045Z,8.23
2022-11-14T20:14:05.577Z,8.21
2022-11-14T20:16:34.353Z,8.26
2022-11-14T20:19:01.751Z,8.28
2022-11-14T20:21:31.421Z,8.30
2022-11-14T20:23:59.291Z,8.32
2022-11-14T20:26:25.897Z,8.28
2022-11-14T20:28:53.819Z,8.28
2022-11-14T20:31:26.341Z,8.31
2022-11-14T20:33:53.956Z,8.31
2022-11-14T20:36:23.803Z,8.30
2022-11-14T20:38:51.469Z,8.34
2022-11-14T20:41:18.707Z,8.36
2022-11-14T20:43:45.219Z,8.38
2022-11-14T20:46:16.686Z,8.41
2022-11-14T20:48:43.763Z,8.42
2022-11-14T20:51:17.886Z,8.45
2022-11-14T20:53:44.737Z,8.47
2022-11-14T20:56:12.823Z,8.43
2022-11-14T20:58:43.868Z,8.47
2022-11-14T21:01:11.103Z,8.46
2022-11-14T21:03:37.805Z,8.51
2022-11-14T21:06:04.751Z,8.51
2022-11-14T21:08:34.469Z,8.48
2022-11-14T21:11:03.763Z,8.44
2022-11-14T21:13:48.796Z,8.39
2022-11-14T21:16:17.297Z,8.35
2022-11-14T21:18:47.966Z,8.30
2022-11-14T21:21:17.831Z,8.27
2022-11-14T21:23:47.447Z,8.19
2022-11-14T21:26:28.408Z,8.17
2022-11-14T21:29:01.541Z,8.18
2022-11-14T21:31:36.841Z,8.23
2022-11-14T21:34:06.459Z,8.13
2022-11-14T21:36:51.217Z,8.08
2022-11-14T21:39:18.018Z,8.12
2022-11-14T21:41:45.710Z,8.12
2022-11-14T21:44:14.456Z,8.19
2022-11-14T21:46:41.296Z,8.22
2022-11-14T21:49:07.993Z,8.26
2022-11-14T21:51:34.726Z,8.28
2022-11-14T21:54:02.781Z,8.32
2022-11-14T21:56:31.611Z,8.36
2022-11-14T21:59:15.100Z,8.44
2022-11-14T22:02:02.775Z,8.47
2022-11-14T22:04:29.994Z,8.56
2022-11-14T22:06:56.467Z,8.55
2022-11-14T22:09:23.361Z,8.57
2022-11-14T22:11:49.691Z,8.58
2022-11-14T22:14:16.065Z,8.63
2022-11-14T22:16:42.424Z,8.66
2022-11-14T22:19:08.742Z,8.66
2022-11-14T22:21:35.370Z,8.63
2022-11-14T22:24:02.697Z,8.60
2022-11-14T22:26:29.097Z,8.63
2022-11-14T22:28:55.459Z,8.62
2022-11-14T22:31:23.741Z,8.57
2022-11-14T22:33:52.576Z,8.62
2022-11-14T22:36:20.015Z,8.62
2022-11-14T22:38:47.113Z,8.59
2022-11-14T22:41:24.347Z,8.58
2022-11-14T22:43:55.267Z,8.64
2022-11-14T22:46:22.040Z,8.65
2022-11-14T22:48:49.653Z,8.66
2022-11-14T22:51:20.904Z,8.69
2022-11-14T22:53:49.731Z,8.65
2022-11-14T22:56:18.242Z,8.66
2022-11-14T22:58:45.803Z,8.66
2022-11-14T23:01:27.027Z,8.63
2022-11-14T23:04:01.988Z,8.59
2022-11-14T23:06:30.569Z,8.59
2022-11-14T23:08:57.360Z,8.59
2022-11-14T23:11:26.393Z,8.59
2022-11-14T23:13:57.405Z,8.55
2022-11-14T23:16:26.580Z,8.53
2022-11-14T23:18:55.485Z,8.52
2022-11-14T23:21:28.475Z,8.49
2022-11-14T23:24:00.468Z,8.53
2022-11-14T23:26:28.555Z,8.56
2022-11-14T23:28:55.439Z,8.57
2022-11-14T23:31:22.306Z,8.55
2022-11-14T23:33:50.329Z,8.56
2022-11-14T23:36:16.696Z,8.57
2022-11-14T23:38:43.434Z,8.59
2022-11-14T23:41:17.351Z,8.59
2022-11-14T23:43:43.758Z,8.58
2022-11-14T23:46:10.114Z,8.54
2022-11-14T23:48:36.493Z,8.54
2022-11-14T23:51:02.965Z,8.51
2022-11-14T23:53:30.346Z,8.49
2022-11-14T23:55:59.422Z,8.48
2022-11-14T23:58:32.668Z,8.49
